createdAt,value
2022-10-18T00:01:13.380Z,101408.84
2022-10-18T00:04:01.664Z,101407.06
2022-10-18T00:06:50.016Z,101413.31
2022-10-18T00:09:38.400Z,101420.47
2022-10-18T00:12:26.742Z,101423.16
2022-10-18T00:15:15.041Z,101424.97
2022-10-18T00:18:03.349Z,101425.88
2022-10-18T00:21:17.646Z,101430.34
2022-10-18T00:24:06.214Z,101427.69
2022-10-18T00:26:54.705Z,101430.38
2022-10-18T00:29:42.671Z,101425.03
2022-10-18T00:32:31.334Z,101429.47
2022-10-18T00:35:19.908Z,101420.59
2022-10-18T00:38:08.203Z,101422.38
2022-10-18T00:40:56.484Z,101414.34
2022-10-18T00:43:59.617Z,101414.34
2022-10-18T00:46:50.405Z,101406.34
2022-10-18T00:49:45.152Z,101412.56
2022-10-18T00:52:42.674Z,101422.31
2022-10-18T00:55:32.922Z,101425.00
2022-10-18T00:58:21.358Z,101435.66
2022-10-18T01:01:09.706Z,101435.66
2022-10-18T01:03:58.133Z,101433.88
2022-10-18T01:07:01.403Z,101435.63
2022-10-18T01:10:24.421Z,101435.59
2022-10-18T01:13:40.119Z,101446.28
2022-10-18T01:17:25.849Z,101437.38
2022-10-18T01:20:32.848Z,101444.44
2022-10-18T01:23:57.596Z,101450.63
2022-10-18T01:26:51.270Z,101448.84
2022-10-18T01:30:29.983Z,101453.28
2022-10-18T01:33:42.862Z,101449.72
2022-10-18T01:36:42.961Z,101446.16
2022-10-18T01:39:36.841Z,101446.13
2022-10-18T01:42:25.629Z,101455.00
2022-10-18T01:45:16.549Z,101457.69
2022-10-18T01:48:05.179Z,101457.66
2022-10-18T01:50:54.185Z,101462.09
2022-10-18T01:53:42.785Z,101455.91
2022-10-18T01:56:57.149Z,101464.75
2022-10-18T02:00:18.031Z,101467.41
2022-10-18T02:03:22.037Z,101462.97
2022-10-18T02:06:25.571Z,101460.31
2022-10-18T02:09:29.030Z,101465.66
2022-10-18T02:12:19.488Z,101465.66
2022-10-18T02:15:09.938Z,101468.31
2022-10-18T02:17:58.583Z,101473.63
2022-10-18T02:20:48.393Z,101469.16
2022-10-18T02:23:37.197Z,101464.69
2022-10-18T02:26:25.708Z,101460.22
2022-10-18T02:29:14.094Z,101458.44
2022-10-18T02:32:18.966Z,101457.53
2022-10-18T02:35:36.741Z,101454.84
2022-10-18T02:38:27.147Z,101453.97
2022-10-18T02:41:26.785Z,101469.94
2022-10-18T02:44:15.278Z,101472.63
2022-10-18T02:47:05.447Z,101475.28
2022-10-18T02:49:53.840Z,101470.84
2022-10-18T02:52:42.163Z,101470.84
2022-10-18T02:55:30.509Z,101472.63
2022-10-18T02:58:18.901Z,101468.19
2022-10-18T03:01:07.336Z,101476.16
2022-10-18T03:03:55.877Z,101474.38
2022-10-18T03:06:44.175Z,101472.56
2022-10-18T03:09:32.585Z,101467.22
2022-10-18T03:12:20.904Z,101474.31
2022-10-18T03:15:09.573Z,101479.63
2022-10-18T03:17:57.846Z,101485.84
2022-10-18T03:20:45.864Z,101477.84
2022-10-18T03:23:34.561Z,101483.13
2022-10-18T03:26:22.666Z,101493.72
2022-10-18T03:29:11.675Z,101490.09
2022-10-18T03:32:00.148Z,101496.31
2022-10-18T03:34:48.443Z,101499.91
2022-10-18T03:37:37.133Z,101499.03
2022-10-18T03:40:25.682Z,101502.63
2022-10-18T03:43:14.056Z,101519.56
2022-10-18T03:46:02.402Z,101524.91
2022-10-18T03:48:50.767Z,101529.38
2022-10-18T03:51:39.170Z,101541.84
2022-10-18T03:54:27.198Z,101541.81
2022-10-18T03:57:15.624Z,101552.50
2022-10-18T04:00:05.030Z,101565.81
2022-10-18T04:03:00.392Z,101576.47
2022-10-18T04:05:50.074Z,101580.94
2022-10-18T04:08:38.468Z,101581.88
2022-10-18T04:11:26.849Z,101576.53
2022-10-18T04:14:15.227Z,101581.03
2022-10-18T04:17:04.883Z,101577.44
2022-10-18T04:19:53.350Z,101573.00
2022-10-18T04:22:41.776Z,101579.25
2022-10-18T04:25:30.196Z,101583.66
2022-10-18T04:28:18.790Z,101582.78
2022-10-18T04:31:07.005Z,101591.69
2022-10-18T04:33:55.580Z,101579.22
2022-10-18T04:36:43.848Z,101599.78
2022-10-18T04:39:32.241Z,101606.03
2022-10-18T04:42:20.908Z,101600.66
2022-10-18T04:45:09.400Z,101600.59
2022-10-18T04:47:57.822Z,101588.91
2022-10-18T04:50:49.842Z,101579.09
2022-10-18T04:53:38.250Z,101620.28
2022-10-18T04:56:26.333Z,101615.84
2022-10-18T04:59:14.383Z,101618.53
2022-10-18T05:04:56.954Z,101619.38
2022-10-18T05:07:45.249Z,101629.16
2022-10-18T05:10:33.924Z,101625.63
2022-10-18T05:13:22.257Z,101628.31
2022-10-18T05:16:10.957Z,101626.56
2022-10-18T05:18:58.979Z,101643.56
2022-10-18T05:21:47.490Z,101652.50
2022-10-18T05:24:35.830Z,101644.53
2022-10-18T05:27:24.112Z,101639.19
2022-10-18T05:30:12.597Z,101623.94
2022-10-18T05:33:01.013Z,101619.47
2022-10-18T05:35:49.405Z,101619.44
2022-10-18T05:38:45.691Z,101607.84
2022-10-18T05:41:34.149Z,101613.19
2022-10-18T05:44:22.489Z,101625.72
2022-10-18T05:47:10.749Z,101634.56
2022-10-18T05:49:59.040Z,101631.88
2022-10-18T05:52:46.933Z,101607.84
2022-10-18T05:55:35.529Z,101611.44
2022-10-18T05:58:23.830Z,101623.78
2022-10-18T06:01:12.195Z,101631.78
2022-10-18T06:04:00.553Z,101629.09
2022-10-18T06:06:48.861Z,101630.88
2022-10-18T06:09:37.265Z,101627.28
2022-10-18T06:12:25.592Z,101628.19
2022-10-18T06:15:14.184Z,101621.94
2022-10-18T06:18:02.501Z,101637.13
2022-10-18T06:20:56.124Z,101639.78
2022-10-18T06:23:48.147Z,101636.19
2022-10-18T06:26:36.094Z,101639.78
2022-10-18T06:29:24.530Z,101651.31
2022-10-18T06:32:12.487Z,101653.97
2022-10-18T06:35:00.581Z,101658.41
2022-10-18T06:37:49.020Z,101664.63
2022-10-18T06:40:38.261Z,101672.63
2022-10-18T06:43:27.062Z,101678.88
2022-10-18T06:46:15.165Z,101686.03
2022-10-18T06:49:03.576Z,101693.16
2022-10-18T06:51:53.850Z,101684.34
2022-10-18T06:54:45.062Z,101706.56
2022-10-18T06:57:33.797Z,101703.03
2022-10-18T07:00:22.105Z,101709.28
2022-10-18T07:03:10.421Z,101719.06
2022-10-18T07:06:02.754Z,101718.19
2022-10-18T07:08:55.055Z,101724.47
2022-10-18T07:11:43.514Z,101734.25
2022-10-18T07:14:31.841Z,101744.00
2022-10-18T07:17:20.134Z,101737.78
2022-10-18T07:20:08.766Z,101733.41
2022-10-18T07:22:57.226Z,101741.50
2022-10-18T07:25:45.638Z,101743.34
2022-10-18T07:28:33.670Z,101752.28
2022-10-18T07:31:22.899Z,101764.84
2022-10-18T07:34:12.985Z,101768.41
2022-10-18T07:37:02.674Z,101778.16
2022-10-18T07:39:51.179Z,101774.59
2022-10-18T07:42:39.612Z,101778.19
2022-10-18T07:45:28.074Z,101779.22
2022-10-18T07:48:16.011Z,101781.00
2022-10-18T07:51:06.067Z,101794.44
2022-10-18T07:53:54.618Z,101791.84
2022-10-18T07:56:43.513Z,101794.53
2022-10-18T07:59:32.027Z,101795.47
2022-10-18T08:02:20.340Z,101805.34
2022-10-18T08:05:08.874Z,101811.56
2022-10-18T08:07:57.317Z,101817.00
2022-10-18T08:10:45.441Z,101819.69
2022-10-18T08:13:33.787Z,101819.69
2022-10-18T08:16:26.765Z,101814.34
2022-10-18T08:19:14.874Z,101821.50
2022-10-18T08:22:02.904Z,101825.94
2022-10-18T08:24:51.021Z,101834.94
2022-10-18T08:27:39.096Z,101835.88
2022-10-18T08:30:27.281Z,101832.34
2022-10-18T08:33:15.299Z,101833.31
2022-10-18T08:36:06.825Z,101834.25
2022-10-18T08:38:54.865Z,101825.34
2022-10-18T08:41:58.302Z,101838.78
2022-10-18T08:44:49.323Z,101828.03
2022-10-18T08:47:42.841Z,101823.63
2022-10-18T08:50:37.828Z,101816.56
2022-10-18T08:54:04.420Z,101804.97
2022-10-18T08:57:02.099Z,101799.63
2022-10-18T08:59:50.233Z,101790.69
2022-10-18T09:03:18.013Z,101778.19
2022-10-18T09:06:44.643Z,101765.72
2022-10-18T09:09:45.386Z,101760.34
2022-10-18T09:13:01.293Z,101754.09
2022-10-18T09:16:01.618Z,101730.88
2022-10-18T09:19:12.697Z,101741.53
2022-10-18T09:22:20.882Z,101712.03
2022-10-18T09:25:21.800Z,101713.66
2022-10-18T09:28:30.648Z,101675.41
2022-10-18T09:31:24.859Z,101678.94
2022-10-18T09:34:45.062Z,101683.41
2022-10-18T09:37:35.125Z,101712.56
2022-10-18T09:40:30.848Z,101693.91
2022-10-18T09:44:22.334Z,101680.59
2022-10-18T09:47:25.317Z,101679.66
2022-10-18T09:50:48.473Z,101695.66
2022-10-18T09:53:55.263Z,101692.94
2022-10-18T09:57:10.272Z,101692.97
2022-10-18T09:59:59.223Z,101675.13
2022-10-18T10:02:47.375Z,101677.84
2022-10-18T10:05:35.570Z,101685.91
2022-10-18T10:08:34.303Z,101712.50
2022-10-18T10:11:33.933Z,101728.16
2022-10-18T10:14:30.227Z,101709.13
2022-10-18T10:17:26.358Z,101671.78
2022-10-18T10:20:31.775Z,101675.34
2022-10-18T10:23:21.587Z,101665.56
2022-10-18T10:26:32.764Z,101636.34
2022-10-18T10:29:45.969Z,101637.25
2022-10-18T10:32:47.797Z,101651.41
2022-10-18T10:35:53.128Z,101656.78
2022-10-18T10:38:42.177Z,101651.44
2022-10-18T10:44:28.882Z,101665.63
2022-10-18T10:47:32.694Z,101656.69
2022-10-18T10:50:27.942Z,101666.44
2022-10-18T10:53:37.491Z,101675.25
2022-10-18T10:56:30.180Z,101669.13
2022-10-18T10:59:21.251Z,101656.66
2022-10-18T11:02:15.441Z,101655.81
2022-10-18T11:05:29.363Z,101646.00
2022-10-18T11:08:24.044Z,101637.13
2022-10-18T11:11:23.363Z,101619.34
2022-10-18T11:14:26.259Z,101628.31
2022-10-18T11:17:31.613Z,101612.34
2022-10-18T11:20:22.739Z,101623.03
2022-10-18T11:23:16.498Z,101618.56
2022-10-18T11:26:13.555Z,101614.09
2022-10-18T11:30:01.326Z,101608.63
2022-10-18T11:33:17.357Z,101615.75
2022-10-18T11:36:14.483Z,101588.84
2022-10-18T11:39:02.499Z,101578.09
2022-10-18T11:42:18.995Z,101578.94
2022-10-18T11:45:42.214Z,101559.28
2022-10-18T11:49:00.584Z,101557.56
2022-10-18T11:52:37.528Z,101553.94
2022-10-18T11:55:43.546Z,101551.13
2022-10-18T11:59:08.887Z,101565.09
2022-10-18T12:02:21.827Z,101571.13
2022-10-18T12:05:23.215Z,101548.78
2022-10-18T12:08:17.004Z,101541.59
2022-10-18T12:11:24.175Z,101520.22
2022-10-18T12:14:38.139Z,101517.53
2022-10-18T12:17:46.128Z,101519.41
2022-10-18T12:20:49.173Z,101528.28
2022-10-18T12:23:45.937Z,101496.97
2022-10-18T12:26:35.239Z,101493.50
2022-10-18T12:29:50.212Z,101495.28
2022-10-18T12:32:40.199Z,101496.97
2022-10-18T12:35:38.003Z,101494.19
2022-10-18T12:38:31.253Z,101490.63
2022-10-18T12:41:27.979Z,101496.88
2022-10-18T12:44:30.026Z,101495.00
2022-10-18T12:47:25.833Z,101493.19
2022-10-18T12:50:37.577Z,101469.03
2022-10-18T12:53:28.009Z,101453.88
2022-10-18T12:56:28.153Z,101455.69
2022-10-18T12:59:16.122Z,101464.59
2022-10-18T13:02:07.686Z,101456.66
2022-10-18T13:04:56.983Z,101466.38
2022-10-18T13:07:44.998Z,101462.78
2022-10-18T13:10:36.848Z,101446.63
2022-10-18T13:13:52.594Z,101454.66
2022-10-18T13:17:27.534Z,101469.72
2022-10-18T13:20:30.644Z,101475.78
2022-10-18T13:23:39.552Z,101482.06
2022-10-18T13:26:36.278Z,101447.50
2022-10-18T13:30:05.861Z,101445.22
2022-10-18T13:33:35.337Z,101475.66
2022-10-18T13:36:25.531Z,101477.56
2022-10-18T13:39:20.282Z,101463.44
2022-10-18T13:42:14.407Z,101476.06
2022-10-18T13:45:33.367Z,101477.72
2022-10-18T13:48:30.421Z,101474.25
2022-10-18T13:51:59.183Z,101475.16
2022-10-18T13:55:36.814Z,101483.97
2022-10-18T13:59:18.730Z,101492.00
2022-10-18T14:02:57.716Z,101496.31
2022-10-18T14:05:51.905Z,101467.00
2022-10-18T14:09:19.262Z,101460.81
2022-10-18T14:12:32.296Z,101475.81
2022-10-18T14:15:36.760Z,101480.00
2022-10-18T14:18:37.059Z,101469.31
2022-10-18T14:21:34.577Z,101481.59
2022-10-18T14:24:25.998Z,101485.16
2022-10-18T14:27:20.911Z,101477.09
2022-10-18T14:30:21.319Z,101462.13
2022-10-18T14:33:35.874Z,101454.25
2022-10-18T14:36:31.369Z,101457.81
2022-10-18T14:39:30.498Z,101447.09
2022-10-18T14:42:24.892Z,101455.06
2022-10-18T14:45:20.897Z,101440.06
2022-10-18T14:48:17.163Z,101445.53
2022-10-18T14:51:10.393Z,101422.69
2022-10-18T14:53:58.621Z,101427.13
2022-10-18T14:56:46.998Z,101435.09
2022-10-18T14:59:47.145Z,101414.63
2022-10-18T15:02:39.122Z,101414.53
2022-10-18T15:05:27.379Z,101392.31
2022-10-18T15:08:15.562Z,101388.84
2022-10-18T15:11:04.141Z,101387.34
2022-10-18T15:14:02.989Z,101395.47
2022-10-18T15:16:58.517Z,101392.78
2022-10-18T15:20:03.501Z,101392.78
2022-10-18T15:22:54.911Z,101388.41
2022-10-18T15:25:43.008Z,101395.53
2022-10-18T15:28:39.324Z,101400.06
2022-10-18T15:31:30.037Z,101415.34
2022-10-18T15:34:26.015Z,101430.59
2022-10-18T15:37:45.548Z,101432.41
2022-10-18T15:40:37.194Z,101428.00
2022-10-18T15:43:28.115Z,101423.59
2022-10-18T15:46:32.844Z,101428.97
2022-10-18T15:49:45.429Z,101428.16
2022-10-18T15:52:43.808Z,101429.03
2022-10-18T15:55:31.918Z,101432.69
2022-10-18T15:58:24.564Z,101439.84
2022-10-18T16:01:33.486Z,101437.25
2022-10-18T16:04:30.555Z,101454.22
2022-10-18T16:07:18.739Z,101454.22
2022-10-18T16:10:14.559Z,101451.59
2022-10-18T16:13:02.683Z,101453.41
2022-10-18T16:15:51.643Z,101459.66
2022-10-18T16:18:39.970Z,101457.91
2022-10-18T16:21:32.789Z,101455.22
2022-10-18T16:24:22.519Z,101441.00
2022-10-18T16:27:10.775Z,101431.19
2022-10-18T16:29:58.913Z,101426.72
2022-10-18T16:32:48.928Z,101428.53
2022-10-18T16:35:37.123Z,101425.88
2022-10-18T16:38:35.607Z,101425.03
2022-10-18T16:41:24.238Z,101420.56
2022-10-18T16:44:12.872Z,101421.44
2022-10-18T16:47:01.013Z,101420.59
2022-10-18T16:49:50.269Z,101429.53
2022-10-18T16:52:38.334Z,101433.09
2022-10-18T16:55:26.559Z,101443.78
2022-10-18T16:58:17.865Z,101447.38
2022-10-18T17:01:08.860Z,101460.75
2022-10-18T17:03:57.269Z,101465.22
2022-10-18T17:06:45.493Z,101470.56
2022-10-18T17:09:35.028Z,101478.59
2022-10-18T17:12:23.098Z,101482.19
2022-10-18T17:15:12.866Z,101480.38
2022-10-18T17:18:01.274Z,101478.63
2022-10-18T17:20:50.553Z,101490.19
2022-10-18T17:23:39.084Z,101488.41
2022-10-18T17:26:29.635Z,101482.19
2022-10-18T17:29:18.110Z,101493.78
2022-10-18T17:32:06.498Z,101485.75
2022-10-18T17:34:54.661Z,101492.00
2022-10-18T17:37:45.422Z,101496.47
2022-10-18T17:40:34.840Z,101508.06
2022-10-18T17:43:22.993Z,101509.84
2022-10-18T17:46:14.296Z,101514.28
2022-10-18T17:49:02.522Z,101513.41
2022-10-18T17:51:50.538Z,101527.66
2022-10-18T17:54:38.696Z,101523.19
2022-10-18T17:57:27.154Z,101514.28
2022-10-18T18:00:16.291Z,101521.41
2022-10-18T18:03:04.964Z,101522.31
2022-10-18T18:05:53.186Z,101519.63
2022-10-18T18:08:41.330Z,101521.38
2022-10-18T18:11:29.518Z,101513.41
2022-10-18T18:14:18.152Z,101511.63
2022-10-18T18:17:06.376Z,101513.41
2022-10-18T18:19:54.476Z,101505.34
2022-10-18T18:22:42.998Z,101503.59
2022-10-18T18:25:31.111Z,101493.81
2022-10-18T18:28:19.209Z,101488.44
2022-10-18T18:31:23.526Z,101491.09
2022-10-18T18:34:11.883Z,101488.44
2022-10-18T18:36:59.993Z,101484.88
2022-10-18T18:39:48.169Z,101489.31
2022-10-18T18:42:36.418Z,101492.00
2022-10-18T18:45:24.750Z,101489.31
2022-10-18T18:48:16.343Z,101490.22
2022-10-18T18:51:15.701Z,101488.44
2022-10-18T18:54:04.830Z,101496.44
2022-10-18T18:56:52.968Z,101489.31
2022-10-18T18:59:41.050Z,101500.00
2022-10-18T19:02:29.295Z,101490.22
2022-10-18T19:05:17.533Z,101498.22
2022-10-18T19:08:06.375Z,101500.91
2022-10-18T19:10:54.831Z,101496.44
2022-10-18T19:13:43.345Z,101486.66
2022-10-18T19:16:36.372Z,101500.00
2022-10-18T19:19:27.390Z,101494.63
2022-10-18T19:22:15.470Z,101501.78
2022-10-18T19:25:03.738Z,101500.84
2022-10-18T19:27:52.405Z,101510.63
2022-10-18T19:30:40.418Z,101508.88
2022-10-18T19:33:41.322Z,101510.63
2022-10-18T19:36:38.301Z,101509.75
2022-10-18T19:39:29.536Z,101509.75
2022-10-18T19:42:21.114Z,101524.88
2022-10-18T19:45:14.382Z,101523.09
2022-10-18T19:48:02.831Z,101523.09
2022-10-18T19:50:50.989Z,101526.63
2022-10-18T19:53:39.168Z,101526.63
2022-10-18T19:56:28.701Z,101528.41
2022-10-18T19:59:17.642Z,101532.88
2022-10-18T20:02:05.803Z,101544.41
2022-10-18T20:04:54.077Z,101543.53
2022-10-18T20:07:43.082Z,101539.97
2022-10-18T20:10:31.143Z,101547.06
2022-10-18T20:13:19.433Z,101556.84
2022-10-18T20:16:10.222Z,101553.28
2022-10-18T20:19:03.311Z,101561.28
2022-10-18T20:21:51.442Z,101566.63
2022-10-18T20:24:39.514Z,101564.84
2022-10-18T20:27:27.585Z,101564.84
2022-10-18T20:30:15.694Z,101575.50
2022-10-18T20:33:03.845Z,101580.84
2022-10-18T20:35:52.473Z,101579.06
2022-10-18T20:38:43.057Z,101579.94
2022-10-18T20:41:38.255Z,101587.94
2022-10-18T20:44:27.121Z,101589.69
2022-10-18T20:47:15.281Z,101595.03
2022-10-18T20:50:04.085Z,101594.16
2022-10-18T20:52:52.143Z,101598.59
2022-10-18T20:55:40.145Z,101591.47
2022-10-18T20:58:29.421Z,101595.03
2022-10-18T21:01:23.153Z,101591.50
2022-10-18T21:04:11.609Z,101587.06
2022-10-18T21:07:01.172Z,101588.84
2022-10-18T21:09:49.356Z,101578.19
2022-10-18T21:12:37.842Z,101578.19
2022-10-18T21:15:26.341Z,101568.38
2022-10-18T21:18:14.405Z,101574.63
2022-10-18T21:21:20.810Z,101564.84
2022-10-18T21:24:08.986Z,101559.47
2022-10-18T21:26:57.329Z,101555.91
2022-10-18T21:29:45.346Z,101549.69
2022-10-18T21:32:33.811Z,101562.13
2022-10-18T21:35:22.184Z,101555.88
2022-10-18T21:38:10.293Z,101552.31
2022-10-18T21:40:58.405Z,101555.88
2022-10-18T21:43:53.053Z,101562.97
2022-10-18T21:46:43.179Z,101555.84
2022-10-18T21:49:35.166Z,101557.66
2022-10-18T21:52:23.344Z,101553.19
2022-10-18T21:55:11.561Z,101553.16
2022-10-18T21:57:59.638Z,101546.91
2022-10-18T22:00:47.708Z,101553.09
2022-10-18T22:03:36.357Z,101555.72
2022-10-18T22:06:26.117Z,101553.03
2022-10-18T22:09:14.407Z,101553.94
2022-10-18T22:12:02.907Z,101544.16
2022-10-18T22:14:50.999Z,101539.56
2022-10-18T22:17:39.150Z,101546.66
2022-10-18T22:20:27.297Z,101551.94
2022-10-18T22:23:15.394Z,101554.56
2022-10-18T22:26:13.519Z,101558.03
2022-10-18T22:29:11.396Z,101572.28
2022-10-18T22:32:01.807Z,101566.00
2022-10-18T22:34:50.279Z,101571.34
2022-10-18T22:37:38.276Z,101569.50
2022-10-18T22:40:26.335Z,101574.84
2022-10-18T22:43:14.349Z,101570.38
2022-10-18T22:46:08.944Z,101575.66
2022-10-18T22:48:57.047Z,101572.91
2022-10-18T22:51:45.174Z,101574.66
2022-10-18T22:54:33.229Z,101581.72
2022-10-18T22:57:21.356Z,101587.94
2022-10-18T23:00:10.402Z,101603.97
2022-10-18T23:02:58.469Z,101596.81
2022-10-18T23:05:47.288Z,101603.03
2022-10-18T23:08:35.485Z,101602.97
2022-10-18T23:11:25.371Z,101601.19
2022-10-18T23:14:13.438Z,101610.06
2022-10-18T23:17:01.574Z,101609.13
2022-10-18T23:19:50.009Z,101602.00
2022-10-18T23:22:38.125Z,101604.66
2022-10-18T23:25:27.323Z,101595.72
2022-10-18T23:28:15.408Z,101599.25
2022-10-18T23:31:13.105Z,101601.91
2022-10-18T23:34:04.919Z,101597.38
2022-10-18T23:36:52.972Z,101598.19
2022-10-18T23:39:41.240Z,101607.91
2022-10-18T23:42:29.303Z,101612.31
2022-10-18T23:45:17.453Z,101626.47
2022-10-18T23:48:05.737Z,101627.34
2022-10-18T23:50:54.276Z,101621.94
2022-10-18T23:53:42.849Z,101633.41
2022-10-18T23:56:30.942Z,101634.38
2022-10-18T23:59:18.944Z,101640.66
